TimeCDT,TemperatureF,Dew PointF,Humidity,Sea Level PressureIn,VisibilityMPH,Wind Direction,Wind SpeedMPH,Gust SpeedMPH,PrecipitationIn,Events,Conditions,WindDirDegrees,DateUTC
12:53 AM,48.0,45.0,89,30.28,10.0,SE,3.5,-,N/A,,Clear,130,2013-03-15 05:53:00
1:53 AM,45.0,43.0,93,30.27,10.0,Calm,Calm,-,N/A,,Clear,0,2013-03-15 06:53:00
2:53 AM,45.0,43.0,93,30.26,10.0,Calm,Calm,-,N/A,,Clear,0,2013-03-15 07:53:00
3:53 AM,43.0,41.0,93,30.24,10.0,Calm,Calm,-,N/A,,Clear,0,2013-03-15 08:53:00
4:53 AM,42.1,39.9,92,30.23,10.0,Calm,Calm,-,N/A,,Clear,0,2013-03-15 09:53:00
5:53 AM,39.0,37.9,96,30.23,10.0,Calm,Calm,-,N/A,,Clear,0,2013-03-15 10:53:00
6:53 AM,39.0,37.9,96,30.23,10.0,Calm,Calm,-,N/A,,Clear,0,2013-03-15 11:53:00
7:53 AM,39.9,39.0,97,30.24,10.0,Calm,Calm,-,N/A,,Clear,0,2013-03-15 12:53:00
8:53 AM,50.0,48.9,96,30.24,9.0,Calm,Calm,-,N/A,,Clear,0,2013-03-15 13:53:00
9:53 AM,63.0,54.0,72,30.25,10.0,SSW,11.5,-,N/A,,Clear,200,2013-03-15 14:53:00
10:53 AM,66.0,55.9,70,30.24,10.0,SSW,11.5,18.4,N/A,,Clear,200,2013-03-15 15:53:00
11:53 AM,71.1,53.1,53,30.23,10.0,SSW,12.7,-,N/A,,Clear,200,2013-03-15 16:53:00
12:53 PM,75.0,48.9,40,30.20,10.0,SW,12.7,-,N/A,,Clear,220,2013-03-15 17:53:00
1:53 PM,77.0,48.0,36,30.17,10.0,South,10.4,-,N/A,,Clear,170,2013-03-15 18:53:00
2:53 PM,79.0,45.0,30,30.12,10.0,South,16.1,21.9,N/A,,Clear,170,2013-03-15 19:53:00
3:53 PM,79.0,44.1,29,30.09,10.0,South,11.5,24.2,N/A,,Clear,190,2013-03-15 20:53:00
4:53 PM,79.0,46.9,32,30.06,10.0,SSW,12.7,27.6,N/A,,Clear,210,2013-03-15 21:53:00
5:53 PM,77.0,50.0,39,30.05,10.0,South,13.8,20.7,N/A,,Partly Cloudy,180,2013-03-15 22:53:00
6:53 PM,71.1,50.0,47,30.06,10.0,South,9.2,18.4,N/A,,Clear,190,2013-03-15 23:53:00
7:53 PM,70.0,50.0,49,30.07,10.0,South,10.4,-,N/A,,Clear,190,2013-03-16 00:53:00
8:53 PM,68.0,51.1,55,30.07,10.0,South,12.7,-,N/A,,Clear,180,2013-03-16 01:53:00
9:53 PM,66.0,52.0,60,30.08,10.0,South,11.5,-,N/A,,Clear,180,2013-03-16 02:53:00
10:53 PM,62.1,53.1,72,30.08,10.0,South,9.2,-,N/A,,Clear,170,2013-03-16 03:53:00
11:53 PM,62.1,55.9,80,30.06,10.0,South,9.2,-,N/A,,Clear,180,2013-03-16 04:53:00